Yunco — CA5247 — position and weather

sailwx.info

Track history (hours):
 
Tides and Currents Weather Stations Pressure Air Temp Water Temp Dewpoint Dewpoint Depression Visibility Wind Speed Wind Dir Waves Ship Positions

Yunco

Last reported at 2018-Jun-24 18:29 UTC. Time now 2018-Jun-24 18:53 UTC.
Position S 32°46' W 071°31'.

Length 32 m; draft 6 m.

Type: Other ship. MMSI: 725001418.

Date/timePositionNaut miles runAvg speedWind from/ knotsBaromVisibWave heightAir tempDewpointWater temp
2018-Jun-24 18:29S 32°46' W 071°31'0 0.0
2018-Jun-24 17:58S 32°46' W 071°31'0 0.0
2018-Jun-24 17:30S 32°46' W 071°31'0 0.0
2018-Jun-24 17:00S 32°46' W 071°31'0 0.0
2018-Jun-24 16:26S 32°46' W 071°31'0 0.0
2018-Jun-24 16:00S 32°46' W 071°31'0 0.0
2018-Jun-24 15:30S 32°46' W 071°31'0 0.0
2018-Jun-24 14:46S 32°46' W 071°31'0 0.0
2018-Jun-24 14:23S 32°46' W 071°31'0 0.0
2018-Jun-24 13:53S 32°46' W 071°31'0 0.0
2018-Jun-24 13:26S 32°46' W 071°31'0 0.0
2018-Jun-24 12:51S 32°46' W 071°31'0 0.0
2018-Jun-24 12:30S 32°46' W 071°31'0 0.0
2018-Jun-24 11:59S 32°46' W 071°31'0 0.0
2018-Jun-24 09:16S 32°46' W 071°31'0 0.0
2018-Jun-24 08:50S 32°46' W 071°31'0 0.0
2018-Jun-24 08:27S 32°46' W 071°31'0 0.0
2018-Jun-24 01:56S 32°46' W 071°31'0 0.0
2018-Jun-23 23:53S 32°46' W 071°31'1 0.5
2018-Jun-23 21:22S 32°45' W 071°30'1 1.2
2018-Jun-23 20:41S 32°45' W 071°31'1 5.3
2018-Jun-23 20:28S 32°46' W 071°31'0 0.1
2018-Jun-23 19:58S 32°46' W 071°31'0 0.0
2018-Jun-23 19:29S 32°46' W 071°31'0 0.0
2018-Jun-23 18:59S 32°46' W 071°31'0 0.0
2018-Jun-23 18:30S 32°46' W 071°31'0 0.0
2018-Jun-23 17:59S 32°46' W 071°31'0 0.0
2018-Jun-23 17:30S 32°46' W 071°31'0 0.0
2018-Jun-23 16:57S 32°46' W 071°31'2 0.1
2018-Jun-23 03:36S 32°45' W 071°31'1 0.2
2018-Jun-22 23:54S 32°45' W 071°31'1 0.2
2018-Jun-22 20:18S 32°46' W 071°31'0 0.0
2018-Jun-22 20:00S 32°46' W 071°31'0 0.0
2018-Jun-22 16:48S 32°46' W 071°31'0 0.1
2018-Jun-22 16:28S 32°46' W 071°31'0 0.1
2018-Jun-22 15:57S 32°46' W 071°31'0 0.0
2018-Jun-22 11:40S 32°46' W 071°31'0 0.1
2018-Jun-22 11:28S 32°46' W 071°31'0 0.0
2018-Jun-21 21:45S 32°46' W 071°31'0 0.0
2018-Jun-21 21:29S 32°46' W 071°31'0 0.0
2018-Jun-21 20:17S 32°46' W 071°31'0 0.0
2018-Jun-21 14:36S 32°46' W 071°31'0 0.1
2018-Jun-21 12:11S 32°46' W 071°31'0 0.0
2018-Jun-21 12:00S 32°46' W 071°31'0 0.0
2018-Jun-21 11:30S 32°46' W 071°31'0 0.0
2018-Jun-21 10:50S 32°46' W 071°31'0 0.0
2018-Jun-21 10:30S 32°46' W 071°31'0 0.0
2018-Jun-21 08:57S 32°46' W 071°31'0 0.0
2018-Jun-21 07:40S 32°46' W 071°31'0 0.0
2018-Jun-21 07:22S 32°46' W 071°31'0 0.0
2018-Jun-21 06:58S 32°46' W 071°31'0 0.0
2018-Jun-21 06:24S 32°46' W 071°31'0 0.0
2018-Jun-21 05:50S 32°46' W 071°31'0 0.0
2018-Jun-21 05:22S 32°46' W 071°31'0 0.0
2018-Jun-21 04:54S 32°46' W 071°31'1 2.8
2018-Jun-21 04:29S 32°45' W 071°32'3 5.7
2018-Jun-21 04:00S 32°47' W 071°34'4 8.0
2018-Jun-21 03:31S 32°51' W 071°35'4 8.3
2018-Jun-21 03:00S 32°55' W 071°36'4 8.3
2018-Jun-21 02:29S 32°59' W 071°36'3 2.9
2018-Jun-21 01:32S 33°02' W 071°38'0 0.8
2018-Jun-21 01:29S 33°02' W 071°38'1 1.4
2018-Jun-21 01:00S 33°02' W 071°37'1 0.9
2018-Jun-21 00:15S 33°02' W 071°37'0 0.0
2018-Jun-20 23:53S 33°02' W 071°37'0 0.0
2018-Jun-20 22:35S 33°02' W 071°37'0 0.0
2018-Jun-20 21:23S 33°02' W 071°37'0 0.0
2018-Jun-20 20:55S 33°02' W 071°37'0 0.0
2018-Jun-20 19:08S 33°02' W 071°37'0 0.0
2018-Jun-20 18:47S 33°02' W 071°37'0 0.0
2018-Jun-20 18:20S 33°02' W 071°37'0 0.0
2018-Jun-20 18:00S 33°02' W 071°37'0 0.0
2018-Jun-20 17:30S 33°02' W 071°37'1 1.3
2018-Jun-20 17:00S 33°02' W 071°38'0 0.2
2018-Jun-20 16:20S 33°02' W 071°38'0 0.8
2018-Jun-20 15:47S 33°02' W 071°37'0 0.8
2018-Jun-20 15:21S 33°02' W 071°37'0 0.0
2018-Jun-20 15:00S 33°02' W 071°37'0 0.0
2018-Jun-20 14:30S 33°02' W 071°37'0 0.0
2018-Jun-20 14:00S 33°02' W 071°37'1 1.0
2018-Jun-20 13:30S 33°02' W 071°37'4 8.3
2018-Jun-20 13:00S 32°58' W 071°36'4 8.0
2018-Jun-20 12:31S 32°54' W 071°36'4 8.0
2018-Jun-20 12:00S 32°50' W 071°35'4 8.1
2018-Jun-20 11:31S 32°46' W 071°34'2 2.2
2018-Jun-20 10:33S 32°46' W 071°31'0 0.0
2018-Jun-20 08:35S 32°46' W 071°31'0 0.0
2018-Jun-20 08:07S 32°46' W 071°31'0 0.0
2018-Jun-20 07:49S 32°46' W 071°31'0 0.0
2018-Jun-20 07:23S 32°46' W 071°31'0 0.0
2018-Jun-20 06:59S 32°46' W 071°31'0 0.0
2018-Jun-20 06:30S 32°46' W 071°31'0 0.0
2018-Jun-20 06:00S 32°46' W 071°31'0 0.0
2018-Jun-20 05:30S 32°46' W 071°31'0 0.0
2018-Jun-20 04:48S 32°46' W 071°31'0 0.0
2018-Jun-20 04:30S 32°46' W 071°31'0 0.0
2018-Jun-20 03:58S 32°46' W 071°31'0 0.0
2018-Jun-20 00:52S 32°46' W 071°31'0 0.0
2018-Jun-20 00:21S 32°46' W 071°31'0 0.0
2018-Jun-19 23:09S 32°46' W 071°31'0 0.0
2018-Jun-19 22:58S 32°46' W 071°31'0 0.0
2018-Jun-19 22:24S 32°46' W 071°31'0 0.0
2018-Jun-19 21:57S 32°46' W 071°31'0 0.0
2018-Jun-19 20:11S 32°46' W 071°31'0 0.0
2018-Jun-19 18:51S 32°46' W 071°31'0 0.0
2018-Jun-19 18:27S 32°46' W 071°31'0 0.0
2018-Jun-19 17:01S 32°46' W 071°31'0 0.0
2018-Jun-19 17:01S 32°46' W 071°31'0 0.0
2018-Jun-19 09:36S 32°46' W 071°31'0 0.0
2018-Jun-19 09:30S 32°46' W 071°31'0 0.0
2018-Jun-18 20:43S 32°46' W 071°31'0 0.1
2018-Jun-18 20:28S 32°46' W 071°31'0 0.0
2018-Jun-18 19:59S 32°46' W 071°31'0 0.1
2018-Jun-18 18:27S 32°46' W 071°31'0 0.0
2018-Jun-18 18:00S 32°46' W 071°31'0 0.0
2018-Jun-18 17:30S 32°46' W 071°31'0 0.0
2018-Jun-18 17:00S 32°46' W 071°31'0 0.0
2018-Jun-18 12:18S 32°46' W 071°31'0 0.0
2018-Jun-18 12:00S 32°46' W 071°31'0 0.0
2018-Jun-18 11:30S 32°46' W 071°31'0 0.0
2018-Jun-18 10:44S 32°46' W 071°31'0 0.0
2018-Jun-18 10:18S 32°46' W 071°31'0 0.0
2018-Jun-18 09:57S 32°46' W 071°31'0 0.0
2018-Jun-18 07:45S 32°46' W 071°31'0 0.0
2018-Jun-18 07:25S 32°46' W 071°31'0 0.0
2018-Jun-18 06:11S 32°46' W 071°31'0 0.0
2018-Jun-18 05:56S 32°46' W 071°31'0 0.0
2018-Jun-18 05:28S 32°46' W 071°31'0 0.0
2018-Jun-18 04:59S 32°46' W 071°31'0 0.0
2018-Jun-18 04:27S 32°46' W 071°31'0 0.0
2018-Jun-18 04:00S 32°46' W 071°31'0 0.0
2018-Jun-18 03:19S 32°46' W 071°31'0 0.0
2018-Jun-18 01:41S 32°46' W 071°31'0 0.0
2018-Jun-18 00:18S 32°46' W 071°31'0 0.0
2018-Jun-17 22:34S 32°46' W 071°31'0 0.1
2018-Jun-17 22:27S 32°46' W 071°31'1 0.6
2018-Jun-17 20:45S 32°46' W 071°30'0 0.2
2018-Jun-17 20:27S 32°46' W 071°30'0 0.2
2018-Jun-17 19:42S 32°46' W 071°30'0 0.2
2018-Jun-17 19:24S 32°46' W 071°30'1 1.3
2018-Jun-17 19:00S 32°46' W 071°30'3 6.8
2018-Jun-17 18:30S 32°47' W 071°34'510.5
2018-Jun-17 18:00S 32°52' W 071°35'510.2
2018-Jun-17 17:30S 32°57' W 071°36'5 9.6
2018-Jun-17 17:01S 33°02' W 071°37'1 1.1
2018-Jun-17 16:30S 33°02' W 071°38'0 0.1
2018-Jun-17 16:00S 33°02' W 071°38'0 0.1
2018-Jun-17 15:30S 33°02' W 071°38'1 1.4
2018-Jun-17 15:00S 33°02' W 071°37'0 0.0
2018-Jun-17 14:30S 33°02' W 071°37'0 0.0
2018-Jun-17 14:00S 33°02' W 071°37'0 0.0
2018-Jun-17 13:26S 33°02' W 071°37'0 0.0
2018-Jun-17 13:00S 33°02' W 071°37'0 0.0
2018-Jun-17 12:29S 33°02' W 071°37'0 0.0
2018-Jun-17 12:00S 33°02' W 071°37'0 0.0
2018-Jun-17 11:30S 33°02' W 071°37'0 0.5
2018-Jun-17 10:50S 33°02' W 071°37'1 0.1
2018-Jun-17 05:03S 33°02' W 071°38'0 0.1
2018-Jun-17 04:57S 33°02' W 071°38'0 0.7
2018-Jun-17 04:14S 33°02' W 071°37'1 1.6
2018-Jun-17 03:18S 33°01' W 071°37'3 9.3
2018-Jun-17 03:00S 32°58' W 071°36'4 8.0
2018-Jun-17 02:30S 32°54' W 071°35'4 7.5
2018-Jun-17 02:00S 32°50' W 071°34'4 7.5
2018-Jun-17 01:30S 32°46' W 071°34'2 3.8
2018-Jun-17 00:59S 32°46' W 071°31'1 0.2
2018-Jun-16 20:52S 32°46' W 071°31'1 1.5
2018-Jun-16 20:20S 32°45' W 071°32'1 1.8
2018-Jun-16 20:00S 32°46' W 071°31'1 1.1
2018-Jun-16 19:30S 32°46' W 071°31'0 0.0
2018-Jun-16 18:58S 32°46' W 071°31'0 0.0
2018-Jun-16 18:30S 32°46' W 071°31'0 0.0
2018-Jun-16 18:00S 32°46' W 071°31'1 0.8
2018-Jun-16 16:29S 32°46' W 071°30'1 1.0
2018-Jun-16 15:57S 32°46' W 071°31'1 1.7
2018-Jun-16 15:28S 32°46' W 071°31'0 0.0
2018-Jun-16 14:58S 32°46' W 071°31'0 0.0
2018-Jun-16 14:26S 32°46' W 071°31'0 0.0
2018-Jun-16 13:57S 32°46' W 071°31'0 0.0
2018-Jun-16 13:17S 32°46' W 071°31'0 0.0
2018-Jun-16 13:00S 32°46' W 071°31'0 0.0
2018-Jun-16 11:55S 32°46' W 071°31'0 0.0
2018-Jun-16 11:26S 32°46' W 071°31'0 0.0
2018-Jun-16 10:58S 32°46' W 071°31'0 0.0
2018-Jun-16 09:47S 32°46' W 071°31'0 0.0
2018-Jun-16 09:30S 32°46' W 071°31'0 0.0
2018-Jun-16 06:49S 32°46' W 071°31'0 0.0
2018-Jun-16 02:41S 32°46' W 071°31'0 0.0
2018-Jun-16 02:21S 32°46' W 071°31'0 0.0
2018-Jun-16 01:56S 32°46' W 071°31'0 0.0
2018-Jun-16 01:28S 32°46' W 071°31'0 0.0
2018-Jun-15 23:07S 32°46' W 071°31'0 0.0
2018-Jun-15 22:50S 32°46' W 071°31'0 0.0
2018-Jun-15 22:23S 32°46' W 071°31'0 0.0
2018-Jun-15 21:56S 32°46' W 071°31'0 0.0
2018-Jun-15 21:30S 32°46' W 071°31'0 0.0
2018-Jun-15 21:00S 32°46' W 071°31'0 0.0
2018-Jun-15 18:34S 32°46' W 071°31'0 0.0
2018-Jun-15 18:28S 32°46' W 071°31'0 0.0
2018-Jun-15 17:59S 32°46' W 071°31'0 0.0
2018-Jun-15 17:30S 32°46' W 071°31'0 0.0
2018-Jun-15 17:00S 32°46' W 071°31'1 0.2
2018-Jun-15 11:03S 32°46' W 071°30'1 2.6
2018-Jun-15 10:42S 32°46' W 071°31'0 0.2
2018-Jun-15 10:26S 32°46' W 071°31'0 0.0
2018-Jun-15 07:59S 32°46' W 071°31'0 0.2
2018-Jun-15 07:28S 32°46' W 071°31'0 0.1
2018-Jun-15 06:36S 32°46' W 071°31'0 0.4
2018-Jun-15 06:14S 32°46' W 071°31'0 0.0
2018-Jun-15 06:00S 32°46' W 071°31'0 0.0
2018-Jun-15 05:27S 32°46' W 071°31'0 0.0
2018-Jun-15 04:56S 32°46' W 071°31'0 0.0
2018-Jun-15 04:24S 32°46' W 071°31'0 0.0
2018-Jun-15 04:00S 32°46' W 071°31'0 0.0
2018-Jun-15 03:30S 32°46' W 071°31'0 0.0
2018-Jun-15 02:58S 32°46' W 071°31'0 0.0
2018-Jun-15 01:31S 32°46' W 071°31'0 0.1
2018-Jun-15 01:26S 32°46' W 071°31'0 0.0
2018-Jun-15 00:58S 32°46' W 071°31'0 0.0
2018-Jun-14 22:38S 32°46' W 071°31'0 0.1
2018-Jun-14 22:30S 32°46' W 071°31'0 0.0
2018-Jun-14 22:00S 32°46' W 071°31'0 0.0
2018-Jun-14 21:30S 32°46' W 071°31'  
Track history (hours):
 
Tides and Currents Weather Stations Pressure Air Temp Water Temp Dewpoint Dewpoint Depression Visibility Wind Speed Wind Dir Waves Ship Positions

Yunco

Last reported at 2018-Jun-24 18:29 UTC. Time now 2018-Jun-24 18:53 UTC.
Position S 32°46' W 071°31'.

Length 32 m; draft 6 m.

Type: Other ship. MMSI: 725001418.

Date/timePositionNaut miles runAvg speedWind from/ knotsBaromVisibWave heightAir tempDewpointWater temp
2018-Jun-24 18:29S 32°46' W 071°31'0 0.0
2018-Jun-24 17:58S 32°46' W 071°31'0 0.0
2018-Jun-24 17:30S 32°46' W 071°31'0 0.0
2018-Jun-24 17:00S 32°46' W 071°31'0 0.0
2018-Jun-24 16:26S 32°46' W 071°31'0 0.0
2018-Jun-24 16:00S 32°46' W 071°31'0 0.0
2018-Jun-24 15:30S 32°46' W 071°31'0 0.0
2018-Jun-24 14:46S 32°46' W 071°31'0 0.0
2018-Jun-24 14:23S 32°46' W 071°31'0 0.0
2018-Jun-24 13:53S 32°46' W 071°31'0 0.0
2018-Jun-24 13:26S 32°46' W 071°31'0 0.0
2018-Jun-24 12:51S 32°46' W 071°31'0 0.0
2018-Jun-24 12:30S 32°46' W 071°31'0 0.0
2018-Jun-24 11:59S 32°46' W 071°31'0 0.0
2018-Jun-24 09:16S 32°46' W 071°31'0 0.0
2018-Jun-24 08:50S 32°46' W 071°31'0 0.0
2018-Jun-24 08:27S 32°46' W 071°31'0 0.0
2018-Jun-24 01:56S 32°46' W 071°31'0 0.0
2018-Jun-23 23:53S 32°46' W 071°31'1 0.5
2018-Jun-23 21:22S 32°45' W 071°30'1 1.2
2018-Jun-23 20:41S 32°45' W 071°31'1 5.3
2018-Jun-23 20:28S 32°46' W 071°31'0 0.1
2018-Jun-23 19:58S 32°46' W 071°31'0 0.0
2018-Jun-23 19:29S 32°46' W 071°31'0 0.0
2018-Jun-23 18:59S 32°46' W 071°31'0 0.0
2018-Jun-23 18:30S 32°46' W 071°31'0 0.0
2018-Jun-23 17:59S 32°46' W 071°31'0 0.0
2018-Jun-23 17:30S 32°46' W 071°31'0 0.0
2018-Jun-23 16:57S 32°46' W 071°31'2 0.1
2018-Jun-23 03:36S 32°45' W 071°31'1 0.2
2018-Jun-22 23:54S 32°45' W 071°31'1 0.2
2018-Jun-22 20:18S 32°46' W 071°31'0 0.0
2018-Jun-22 20:00S 32°46' W 071°31'0 0.0
2018-Jun-22 16:48S 32°46' W 071°31'0 0.1
2018-Jun-22 16:28S 32°46' W 071°31'0 0.1
2018-Jun-22 15:57S 32°46' W 071°31'0 0.0
2018-Jun-22 11:40S 32°46' W 071°31'0 0.1
2018-Jun-22 11:28S 32°46' W 071°31'0 0.0
2018-Jun-21 21:45S 32°46' W 071°31'0 0.0
2018-Jun-21 21:29S 32°46' W 071°31'0 0.0
2018-Jun-21 20:17S 32°46' W 071°31'0 0.0
2018-Jun-21 14:36S 32°46' W 071°31'0 0.1
2018-Jun-21 12:11S 32°46' W 071°31'0 0.0
2018-Jun-21 12:00S 32°46' W 071°31'0 0.0
2018-Jun-21 11:30S 32°46' W 071°31'0 0.0
2018-Jun-21 10:50S 32°46' W 071°31'0 0.0
2018-Jun-21 10:30S 32°46' W 071°31'0 0.0
2018-Jun-21 08:57S 32°46' W 071°31'0 0.0
2018-Jun-21 07:40S 32°46' W 071°31'0 0.0
2018-Jun-21 07:22S 32°46' W 071°31'0 0.0
2018-Jun-21 06:58S 32°46' W 071°31'0 0.0
2018-Jun-21 06:24S 32°46' W 071°31'0 0.0
2018-Jun-21 05:50S 32°46' W 071°31'0 0.0
2018-Jun-21 05:22S 32°46' W 071°31'0 0.0
2018-Jun-21 04:54S 32°46' W 071°31'1 2.8
2018-Jun-21 04:29S 32°45' W 071°32'3 5.7
2018-Jun-21 04:00S 32°47' W 071°34'4 8.0
2018-Jun-21 03:31S 32°51' W 071°35'4 8.3
2018-Jun-21 03:00S 32°55' W 071°36'4 8.3
2018-Jun-21 02:29S 32°59' W 071°36'3 2.9
2018-Jun-21 01:32S 33°02' W 071°38'0 0.8
2018-Jun-21 01:29S 33°02' W 071°38'1 1.4
2018-Jun-21 01:00S 33°02' W 071°37'1 0.9
2018-Jun-21 00:15S 33°02' W 071°37'0 0.0
2018-Jun-20 23:53S 33°02' W 071°37'0 0.0
2018-Jun-20 22:35S 33°02' W 071°37'0 0.0
2018-Jun-20 21:23S 33°02' W 071°37'0 0.0
2018-Jun-20 20:55S 33°02' W 071°37'0 0.0
2018-Jun-20 19:08S 33°02' W 071°37'0 0.0
2018-Jun-20 18:47S 33°02' W 071°37'0 0.0
2018-Jun-20 18:20S 33°02' W 071°37'0 0.0
2018-Jun-20 18:00S 33°02' W 071°37'0 0.0
2018-Jun-20 17:30S 33°02' W 071°37'1 1.3
2018-Jun-20 17:00S 33°02' W 071°38'0 0.2
2018-Jun-20 16:20S 33°02' W 071°38'0 0.8
2018-Jun-20 15:47S 33°02' W 071°37'0 0.8
2018-Jun-20 15:21S 33°02' W 071°37'0 0.0
2018-Jun-20 15:00S 33°02' W 071°37'0 0.0
2018-Jun-20 14:30S 33°02' W 071°37'0 0.0
2018-Jun-20 14:00S 33°02' W 071°37'1 1.0
2018-Jun-20 13:30S 33°02' W 071°37'4 8.3
2018-Jun-20 13:00S 32°58' W 071°36'4 8.0
2018-Jun-20 12:31S 32°54' W 071°36'4 8.0
2018-Jun-20 12:00S 32°50' W 071°35'4 8.1
2018-Jun-20 11:31S 32°46' W 071°34'2 2.2
2018-Jun-20 10:33S 32°46' W 071°31'0 0.0
2018-Jun-20 08:35S 32°46' W 071°31'0 0.0
2018-Jun-20 08:07S 32°46' W 071°31'0 0.0
2018-Jun-20 07:49S 32°46' W 071°31'0 0.0
2018-Jun-20 07:23S 32°46' W 071°31'0 0.0
2018-Jun-20 06:59S 32°46' W 071°31'0 0.0
2018-Jun-20 06:30S 32°46' W 071°31'0 0.0
2018-Jun-20 06:00S 32°46' W 071°31'0 0.0
2018-Jun-20 05:30S 32°46' W 071°31'0 0.0
2018-Jun-20 04:48S 32°46' W 071°31'0 0.0
2018-Jun-20 04:30S 32°46' W 071°31'0 0.0
2018-Jun-20 03:58S 32°46' W 071°31'0 0.0
2018-Jun-20 00:52S 32°46' W 071°31'0 0.0
2018-Jun-20 00:21S 32°46' W 071°31'0 0.0
2018-Jun-19 23:09S 32°46' W 071°31'0 0.0
2018-Jun-19 22:58S 32°46' W 071°31'0 0.0
2018-Jun-19 22:24S 32°46' W 071°31'0 0.0
2018-Jun-19 21:57S 32°46' W 071°31'0 0.0
2018-Jun-19 20:11S 32°46' W 071°31'0 0.0
2018-Jun-19 18:51S 32°46' W 071°31'0 0.0
2018-Jun-19 18:27S 32°46' W 071°31'0 0.0
2018-Jun-19 17:01S 32°46' W 071°31'0 0.0
2018-Jun-19 17:01S 32°46' W 071°31'0 0.0
2018-Jun-19 09:36S 32°46' W 071°31'0 0.0
2018-Jun-19 09:30S 32°46' W 071°31'0 0.0
2018-Jun-18 20:43S 32°46' W 071°31'0 0.1
2018-Jun-18 20:28S 32°46' W 071°31'0 0.0
2018-Jun-18 19:59S 32°46' W 071°31'0 0.1
2018-Jun-18 18:27S 32°46' W 071°31'0 0.0
2018-Jun-18 18:00S 32°46' W 071°31'0 0.0
2018-Jun-18 17:30S 32°46' W 071°31'0 0.0
2018-Jun-18 17:00S 32°46' W 071°31'0 0.0
2018-Jun-18 12:18S 32°46' W 071°31'0 0.0
2018-Jun-18 12:00S 32°46' W 071°31'0 0.0
2018-Jun-18 11:30S 32°46' W 071°31'0 0.0
2018-Jun-18 10:44S 32°46' W 071°31'0 0.0
2018-Jun-18 10:18S 32°46' W 071°31'0 0.0
2018-Jun-18 09:57S 32°46' W 071°31'0 0.0
2018-Jun-18 07:45S 32°46' W 071°31'0 0.0
2018-Jun-18 07:25S 32°46' W 071°31'0 0.0
2018-Jun-18 06:11S 32°46' W 071°31'0 0.0
2018-Jun-18 05:56S 32°46' W 071°31'0 0.0
2018-Jun-18 05:28S 32°46' W 071°31'0 0.0
2018-Jun-18 04:59S 32°46' W 071°31'0 0.0
2018-Jun-18 04:27S 32°46' W 071°31'0 0.0
2018-Jun-18 04:00S 32°46' W 071°31'0 0.0
2018-Jun-18 03:19S 32°46' W 071°31'0 0.0
2018-Jun-18 01:41S 32°46' W 071°31'0 0.0
2018-Jun-18 00:18S 32°46' W 071°31'0 0.0
2018-Jun-17 22:34S 32°46' W 071°31'0 0.1
2018-Jun-17 22:27S 32°46' W 071°31'1 0.6
2018-Jun-17 20:45S 32°46' W 071°30'0 0.2
2018-Jun-17 20:27S 32°46' W 071°30'0 0.2
2018-Jun-17 19:42S 32°46' W 071°30'0 0.2
2018-Jun-17 19:24S 32°46' W 071°30'1 1.3
2018-Jun-17 19:00S 32°46' W 071°30'3 6.8
2018-Jun-17 18:30S 32°47' W 071°34'510.5
2018-Jun-17 18:00S 32°52' W 071°35'510.2
2018-Jun-17 17:30S 32°57' W 071°36'5 9.6
2018-Jun-17 17:01S 33°02' W 071°37'1 1.1
2018-Jun-17 16:30S 33°02' W 071°38'0 0.1
2018-Jun-17 16:00S 33°02' W 071°38'0 0.1
2018-Jun-17 15:30S 33°02' W 071°38'1 1.4
2018-Jun-17 15:00S 33°02' W 071°37'0 0.0
2018-Jun-17 14:30S 33°02' W 071°37'0 0.0
2018-Jun-17 14:00S 33°02' W 071°37'0 0.0
2018-Jun-17 13:26S 33°02' W 071°37'0 0.0
2018-Jun-17 13:00S 33°02' W 071°37'0 0.0
2018-Jun-17 12:29S 33°02' W 071°37'0 0.0
2018-Jun-17 12:00S 33°02' W 071°37'0 0.0
2018-Jun-17 11:30S 33°02' W 071°37'0 0.5
2018-Jun-17 10:50S 33°02' W 071°37'1 0.1
2018-Jun-17 05:03S 33°02' W 071°38'0 0.1
2018-Jun-17 04:57S 33°02' W 071°38'0 0.7
2018-Jun-17 04:14S 33°02' W 071°37'1 1.6
2018-Jun-17 03:18S 33°01' W 071°37'3 9.3
2018-Jun-17 03:00S 32°58' W 071°36'4 8.0
2018-Jun-17 02:30S 32°54' W 071°35'4 7.5
2018-Jun-17 02:00S 32°50' W 071°34'4 7.5
2018-Jun-17 01:30S 32°46' W 071°34'2 3.8
2018-Jun-17 00:59S 32°46' W 071°31'1 0.2
2018-Jun-16 20:52S 32°46' W 071°31'1 1.5
2018-Jun-16 20:20S 32°45' W 071°32'1 1.8
2018-Jun-16 20:00S 32°46' W 071°31'1 1.1
2018-Jun-16 19:30S 32°46' W 071°31'0 0.0
2018-Jun-16 18:58S 32°46' W 071°31'0 0.0
2018-Jun-16 18:30S 32°46' W 071°31'0 0.0
2018-Jun-16 18:00S 32°46' W 071°31'1 0.8
2018-Jun-16 16:29S 32°46' W 071°30'1 1.0
2018-Jun-16 15:57S 32°46' W 071°31'1 1.7
2018-Jun-16 15:28S 32°46' W 071°31'0 0.0
2018-Jun-16 14:58S 32°46' W 071°31'0 0.0
2018-Jun-16 14:26S 32°46' W 071°31'0 0.0
2018-Jun-16 13:57S 32°46' W 071°31'0 0.0
2018-Jun-16 13:17S 32°46' W 071°31'0 0.0
2018-Jun-16 13:00S 32°46' W 071°31'0 0.0
2018-Jun-16 11:55S 32°46' W 071°31'0 0.0
2018-Jun-16 11:26S 32°46' W 071°31'0 0.0
2018-Jun-16 10:58S 32°46' W 071°31'0 0.0
2018-Jun-16 09:47S 32°46' W 071°31'0 0.0
2018-Jun-16 09:30S 32°46' W 071°31'0 0.0
2018-Jun-16 06:49S 32°46' W 071°31'0 0.0
2018-Jun-16 02:41S 32°46' W 071°31'0 0.0
2018-Jun-16 02:21S 32°46' W 071°31'0 0.0
2018-Jun-16 01:56S 32°46' W 071°31'0 0.0
2018-Jun-16 01:28S 32°46' W 071°31'0 0.0
2018-Jun-15 23:07S 32°46' W 071°31'0 0.0
2018-Jun-15 22:50S 32°46' W 071°31'0 0.0
2018-Jun-15 22:23S 32°46' W 071°31'0 0.0
2018-Jun-15 21:56S 32°46' W 071°31'0 0.0
2018-Jun-15 21:30S 32°46' W 071°31'0 0.0
2018-Jun-15 21:00S 32°46' W 071°31'0 0.0
2018-Jun-15 18:34S 32°46' W 071°31'0 0.0
2018-Jun-15 18:28S 32°46' W 071°31'0 0.0
2018-Jun-15 17:59S 32°46' W 071°31'0 0.0
2018-Jun-15 17:30S 32°46' W 071°31'0 0.0
2018-Jun-15 17:00S 32°46' W 071°31'1 0.2
2018-Jun-15 11:03S 32°46' W 071°30'1 2.6
2018-Jun-15 10:42S 32°46' W 071°31'0 0.2
2018-Jun-15 10:26S 32°46' W 071°31'0 0.0
2018-Jun-15 07:59S 32°46' W 071°31'0 0.2
2018-Jun-15 07:28S 32°46' W 071°31'0 0.1
2018-Jun-15 06:36S 32°46' W 071°31'0 0.4
2018-Jun-15 06:14S 32°46' W 071°31'0 0.0
2018-Jun-15 06:00S 32°46' W 071°31'0 0.0
2018-Jun-15 05:27S 32°46' W 071°31'0 0.0
2018-Jun-15 04:56S 32°46' W 071°31'0 0.0
2018-Jun-15 04:24S 32°46' W 071°31'0 0.0
2018-Jun-15 04:00S 32°46' W 071°31'0 0.0
2018-Jun-15 03:30S 32°46' W 071°31'0 0.0
2018-Jun-15 02:58S 32°46' W 071°31'0 0.0
2018-Jun-15 01:31S 32°46' W 071°31'0 0.1
2018-Jun-15 01:26S 32°46' W 071°31'0 0.0
2018-Jun-15 00:58S 32°46' W 071°31'0 0.0
2018-Jun-14 22:38S 32°46' W 071°31'0 0.1
2018-Jun-14 22:30S 32°46' W 071°31'0 0.0
2018-Jun-14 22:00S 32°46' W 071°31'0 0.0
2018-Jun-14 21:30S 32°46' W 071°31'  

Dump ship's entire track history